Time;durP1;ratioP1;P1;durP2;ratioP2;P2;SDS_P1;SDS_P2;PMS_P1;PMS_P2;Temp;Humidity;BMP_temperature;BMP_pressure;BME280_temperature;BME280_humidity;BME280_pressure;Samples;Min_cycle;Max_cycle;Signal;HPM_P1;HPM_P2
2021/10/09 00:00:24;;;;;;;18.83;16.67;;;;;;;;;;5020938;28;20458;-79
2021/10/09 00:02:51;;;;;;;20.40;16.53;;;;;;;;;;5038273;28;20450;-81
2021/10/09 00:05:18;;;;;;;18.53;16.13;;;;;;;;;;5043862;28;20770;-82
2021/10/09 00:07:45;;;;;;;20.13;17.10;;;;;;;;;;5032221;28;20489;-80
2021/10/09 00:10:23;;;;;;;19.73;16.50;;;;;;;;;;5032114;28;20454;-81
2021/10/09 00:12:50;;;;;;;21.00;17.13;;;;;;;;;;5022183;28;20509;-80
2021/10/09 00:15:18;;;;;;;30.07;18.70;;;;;;;;;;5021733;28;20465;-81
2021/10/09 00:17:45;;;;;;;20.40;15.90;;;;;;;;;;5018557;28;20441;-80
2021/10/09 00:20:13;;;;;;;20.47;16.67;;;;;;;;;;5036353;28;20936;-83
2021/10/09 00:22:40;;;;;;;19.73;15.07;;;;;;;;;;5032423;28;20469;-79
2021/10/09 00:25:08;;;;;;;21.23;17.40;;;;;;;;;;5031735;28;20446;-81
2021/10/09 00:27:35;;;;;;;23.53;17.13;;;;;;;;;;5030623;28;20461;-79
2021/10/09 00:30:02;;;;;;;20.27;17.50;;;;;;;;;;5031692;28;20464;-82
2021/10/09 00:32:31;;;;;;;23.70;17.50;;;;;;;;;;5008421;28;20835;-81
2021/10/09 00:34:58;;;;;;;22.10;16.87;;;;;;;;;;5034041;28;20950;-82
2021/10/09 00:37:25;;;;;;;23.50;17.40;;;;;;;;;;5032114;28;20454;-80
2021/10/09 00:39:52;;;;;;;21.47;17.30;;;;;;;;;;5022522;28;20463;-79
2021/10/09 00:42:19;;;;;;;23.00;17.73;;;;;;;;;;5033368;28;20988;-81
2021/10/09 00:44:47;;;;;;;20.83;16.83;;;;;;;;;;5029636;28;20445;-81
2021/10/09 00:47:14;;;;;;;25.97;19.23;;;;;;;;;;5025174;28;20461;-78
2021/10/09 00:49:42;;;;;;;21.57;16.03;;;;;;;;;;5031718;28;20449;-79
2021/10/09 00:52:10;;;;;;;23.60;17.83;;;;;;;;;;5028487;28;20466;-80
2021/10/09 00:54:39;;;;;;;22.93;17.53;;;;;;;;;;5027704;28;20465;-80
2021/10/09 00:57:07;;;;;;;24.93;18.10;;;;;;;;;;5009104;28;20465;-79
2021/10/09 00:59:34;;;;;;;25.50;18.07;;;;;;;;;;5025441;28;20454;-83
2021/10/09 01:02:03;;;;;;;22.20;17.13;;;;;;;;;;5030283;28;20509;-79
2021/10/09 01:04:31;;;;;;;22.70;18.53;;;;;;;;;;5036963;28;20910;-79
2021/10/09 01:06:59;;;;;;;25.00;18.60;;;;;;;;;;5036889;28;21177;-80
2021/10/09 01:09:26;;;;;;;25.80;18.40;;;;;;;;;;5028893;28;20963;-78
2021/10/09 01:11:53;;;;;;;26.67;20.27;;;;;;;;;;5031025;28;20448;-79
2021/10/09 01:14:21;;;;;;;26.30;19.23;;;;;;;;;;5023080;28;20477;-80
2021/10/09 01:16:48;;;;;;;24.37;17.43;;;;;;;;;;5032300;28;20485;-78
2021/10/09 01:19:15;;;;;;;25.60;18.90;;;;;;;;;;5033093;28;20450;-81
2021/10/09 01:21:45;;;;;;;24.33;17.90;;;;;;;;;;5008255;28;20498;-79
2021/10/09 01:24:12;;;;;;;24.87;19.43;;;;;;;;;;5036360;28;20446;-81
2021/10/09 01:26:39;;;;;;;22.43;17.93;;;;;;;;;;5047468;28;20452;-79
2021/10/09 01:29:08;;;;;;;25.03;19.23;;;;;;;;;;5023477;28;20458;-79
2021/10/09 01:31:35;;;;;;;27.90;17.30;;;;;;;;;;5030632;28;20445;-79
2021/10/09 01:34:03;;;;;;;30.77;21.03;;;;;;;;;;5010111;28;20489;-79
2021/10/09 01:36:31;;;;;;;25.80;19.67;;;;;;;;;;5012859;28;20466;-79
2021/10/09 01:38:59;;;;;;;24.63;18.33;;;;;;;;;;5036492;28;20942;-80
2021/10/09 01:41:27;;;;;;;23.23;18.27;;;;;;;;;;5009410;28;20477;-80
2021/10/09 01:43:54;;;;;;;25.13;19.10;;;;;;;;;;5009418;28;20983;-82
2021/10/09 01:46:22;;;;;;;26.10;20.73;;;;;;;;;;5034629;28;20446;-81
2021/10/09 01:48:49;;;;;;;31.33;21.23;;;;;;;;;;5030721;28;20460;-79
2021/10/09 01:51:17;;;;;;;32.80;21.77;;;;;;;;;;5026188;28;21042;-79
2021/10/09 01:53:45;;;;;;;25.83;19.73;;;;;;;;;;5026304;28;20603;-79
2021/10/09 01:56:14;;;;;;;26.17;20.70;;;;;;;;;;5021518;28;20535;-80
2021/10/09 01:58:41;;;;;;;26.40;21.20;;;;;;;;;;5021112;28;20449;-78
2021/10/09 02:01:08;;;;;;;31.40;23.20;;;;;;;;;;5026970;28;20480;-81
2021/10/09 02:03:36;;;;;;;29.73;22.97;;;;;;;;;;5032392;28;20959;-79
2021/10/09 02:06:04;;;;;;;27.10;20.60;;;;;;;;;;5018241;28;20451;-80
2021/10/09 02:08:31;;;;;;;31.30;20.90;;;;;;;;;;5031833;28;20457;-80
2021/10/09 02:11:00;;;;;;;28.37;20.53;;;;;;;;;;5025775;28;20461;-78
2021/10/09 02:13:34;;;;;;;27.23;21.97;;;;;;;;;;5027876;28;20481;-78
2021/10/09 02:16:07;;;;;;;27.47;20.30;;;;;;;;;;5034057;28;20449;-79
2021/10/09 02:18:44;;;;;;;30.20;21.70;;;;;;;;;;5026023;28;20461;-81
2021/10/09 02:26:33;;;;;;;29.13;21.50;;;;;;;;;;5029818;28;20905;-82
2021/10/09 02:29:02;;;;;;;28.40;19.67;;;;;;;;;;5033732;28;20442;-81
2021/10/09 02:31:29;;;;;;;28.43;19.83;;;;;;;;;;5030818;28;20463;-79
2021/10/09 02:33:56;;;;;;;24.70;20.07;;;;;;;;;;5030369;28;20478;-80
2021/10/09 02:36:23;;;;;;;27.17;20.63;;;;;;;;;;5028731;28;20465;-79
2021/10/09 02:38:50;;;;;;;27.50;20.30;;;;;;;;;;5032804;28;20473;-81
2021/10/09 02:41:18;;;;;;;26.23;19.83;;;;;;;;;;5045489;28;20496;-78
2021/10/09 02:43:45;;;;;;;29.20;20.33;;;;;;;;;;5053553;28;20468;-80
2021/10/09 02:46:13;;;;;;;30.47;21.50;;;;;;;;;;5011916;28;20852;-81
2021/10/09 02:48:40;;;;;;;28.17;20.63;;;;;;;;;;5015535;28;20804;-82
2021/10/09 02:51:08;;;;;;;26.83;20.33;;;;;;;;;;5033864;28;20461;-79
2021/10/09 02:53:35;;;;;;;28.07;21.70;;;;;;;;;;5020383;28;21199;-78
2021/10/09 02:56:02;;;;;;;29.47;21.70;;;;;;;;;;5028086;28;20464;-78
2021/10/09 02:58:29;;;;;;;28.20;19.57;;;;;;;;;;5020145;28;21089;-78
2021/10/09 03:00:58;;;;;;;27.80;20.97;;;;;;;;;;5026654;28;20462;-81
2021/10/09 03:03:40;;;;;;;30.40;21.23;;;;;;;;;;5013859;28;20451;-81
2021/10/09 03:06:09;;;;;;;25.77;20.07;;;;;;;;;;5020167;28;20465;-79
2021/10/09 03:08:36;;;;;;;25.80;20.80;;;;;;;;;;5031951;28;20453;-78
2021/10/09 03:11:03;;;;;;;26.73;20.50;;;;;;;;;;5038832;28;20892;-80
2021/10/09 03:13:30;;;;;;;26.37;20.53;;;;;;;;;;5024403;28;20486;-78
2021/10/09 03:15:57;;;;;;;27.70;20.10;;;;;;;;;;5022113;28;20458;-80
2021/10/09 03:18:25;;;;;;;25.40;19.30;;;;;;;;;;5033027;28;20462;-82
2021/10/09 03:20:52;;;;;;;24.23;18.80;;;;;;;;;;5032576;28;20442;-80
2021/10/09 03:23:20;;;;;;;25.10;19.50;;;;;;;;;;5020775;28;20486;-80
2021/10/09 03:25:47;;;;;;;28.83;18.07;;;;;;;;;;5032106;28;20837;-82
2021/10/09 03:28:14;;;;;;;21.90;16.93;;;;;;;;;;5043189;28;20441;-78
2021/10/09 03:30:42;;;;;;;22.40;17.30;;;;;;;;;;5043038;28;20457;-81
2021/10/09 03:33:09;;;;;;;19.33;16.23;;;;;;;;;;5029034;28;20840;-79
2021/10/09 03:35:36;;;;;;;21.40;16.83;;;;;;;;;;5033036;28;20438;-79
2021/10/09 03:38:03;;;;;;;24.60;17.90;;;;;;;;;;5026047;28;20462;-79
2021/10/09 03:40:32;;;;;;;20.80;17.03;;;;;;;;;;5033676;28;20450;-78
2021/10/09 03:43:03;;;;;;;21.53;17.83;;;;;;;;;;5034644;28;20486;-79
2021/10/09 03:45:33;;;;;;;19.30;16.90;;;;;;;;;;5031463;28;20457;-79
2021/10/09 03:48:09;;;;;;;22.47;18.03;;;;;;;;;;5038501;28;20493;-78
2021/10/09 03:53:17;;;;;;;22.70;17.80;;;;;;;;;;5031438;28;20462;-79
2021/10/09 03:55:45;;;;;;;21.80;17.67;;;;;;;;;;5026427;28;20462;-79
2021/10/09 03:58:13;;;;;;;22.73;18.00;;;;;;;;;;5030716;28;20956;-80
2021/10/09 04:00:40;;;;;;;19.70;15.63;;;;;;;;;;5032655;28;20457;-78
2021/10/09 04:03:07;;;;;;;19.37;17.33;;;;;;;;;;5024335;28;20497;-79
2021/10/09 04:05:34;;;;;;;20.70;17.00;;;;;;;;;;5025233;28;20910;-79
2021/10/09 04:08:01;;;;;;;18.87;16.67;;;;;;;;;;5028630;28;20453;-80
2021/10/09 04:10:28;;;;;;;20.43;17.60;;;;;;;;;;5036459;28;20458;-78
2021/10/09 04:12:57;;;;;;;22.73;16.90;;;;;;;;;;5044650;28;20464;-80
2021/10/09 04:15:24;;;;;;;21.33;17.23;;;;;;;;;;5031288;28;20466;-77
2021/10/09 04:17:51;;;;;;;24.47;17.93;;;;;;;;;;5025670;28;20446;-82
2021/10/09 04:20:18;;;;;;;25.60;18.60;;;;;;;;;;5010153;28;20443;-84
2021/10/09 04:22:45;;;;;;;22.57;17.43;;;;;;;;;;5014693;28;20490;-79
2021/10/09 04:25:13;;;;;;;25.07;18.77;;;;;;;;;;5028316;28;20449;-77
2021/10/09 04:27:40;;;;;;;23.40;18.10;;;;;;;;;;5039969;28;20440;-78
2021/10/09 04:30:09;;;;;;;19.80;15.70;;;;;;;;;;5044639;28;20446;-78
2021/10/09 04:32:36;;;;;;;20.93;16.80;;;;;;;;;;5022938;28;20478;-78
2021/10/09 04:35:03;;;;;;;22.03;17.37;;;;;;;;;;5030673;28;20434;-79
2021/10/09 04:37:31;;;;;;;23.73;18.20;;;;;;;;;;5028658;28;20458;-79
2021/10/09 04:39:58;;;;;;;20.67;16.40;;;;;;;;;;5034676;28;20438;-78
2021/10/09 04:42:25;;;;;;;20.60;17.50;;;;;;;;;;5036099;28;20591;-78
2021/10/09 04:44:52;;;;;;;20.67;17.37;;;;;;;;;;5027863;28;20458;-78
2021/10/09 04:47:21;;;;;;;24.70;17.93;;;;;;;;;;5028958;28;20918;-81
2021/10/09 04:49:48;;;;;;;21.27;16.73;;;;;;;;;;5025821;28;20952;-81
2021/10/09 04:52:15;;;;;;;20.37;16.47;;;;;;;;;;5025604;28;20517;-80
2021/10/09 04:54:42;;;;;;;21.97;17.47;;;;;;;;;;5015772;28;20459;-79
2021/10/09 04:57:09;;;;;;;21.27;17.70;;;;;;;;;;5027006;28;20468;-79
2021/10/09 04:59:36;;;;;;;22.30;17.70;;;;;;;;;;5026027;28;21527;-80
2021/10/09 05:02:04;;;;;;;21.67;17.93;;;;;;;;;;5030024;28;20477;-83
2021/10/09 05:04:32;;;;;;;23.33;18.30;;;;;;;;;;5027180;28;20454;-79
2021/10/09 05:06:59;;;;;;;22.73;19.03;;;;;;;;;;5017974;28;20721;-80
2021/10/09 05:09:27;;;;;;;25.47;19.90;;;;;;;;;;5028546;28;20460;-82
2021/10/09 05:11:54;;;;;;;23.13;16.83;;;;;;;;;;5024522;28;20449;-78
2021/10/09 05:14:21;;;;;;;25.57;19.63;;;;;;;;;;5025859;28;20564;-79
2021/10/09 05:16:48;;;;;;;23.80;18.60;;;;;;;;;;5018437;28;20469;-82
2021/10/09 05:19:30;;;;;;;23.63;18.87;;;;;;;;;;5010943;28;20819;-83
2021/10/09 05:21:58;;;;;;;24.47;18.07;;;;;;;;;;4949962;29;20446;-79
2021/10/09 05:24:26;;;;;;;23.50;19.30;;;;;;;;;;4959341;28;20468;-81
2021/10/09 05:26:53;;;;;;;22.13;18.67;;;;;;;;;;4964485;28;20444;-80
2021/10/09 05:29:21;;;;;;;23.60;18.80;;;;;;;;;;4973111;28;20996;-78
2021/10/09 05:31:50;;;;;;;23.27;18.27;;;;;;;;;;4963796;28;21073;-83
2021/10/09 05:34:17;;;;;;;24.57;19.17;;;;;;;;;;4969212;28;20732;-80
2021/10/09 05:36:45;;;;;;;19.90;17.47;;;;;;;;;;4965096;28;20468;-83
2021/10/09 05:39:13;;;;;;;22.27;17.60;;;;;;;;;;4969716;28;20445;-81
2021/10/09 05:41:40;;;;;;;22.77;18.03;;;;;;;;;;4953783;28;20480;-82
2021/10/09 05:44:09;;;;;;;22.60;19.30;;;;;;;;;;4976468;28;20501;-81
2021/10/09 05:46:36;;;;;;;23.40;18.77;;;;;;;;;;4971960;28;20437;-80
2021/10/09 05:49:04;;;;;;;22.83;18.35;;;;;;;;;;4966435;28;20555;-81
2021/10/09 05:51:33;;;;;;;20.93;17.00;;;;;;;;;;4969324;28;20209;-82
2021/10/09 05:54:07;;;;;;;25.67;18.80;;;;;;;;;;5022199;28;20492;-80
2021/10/09 05:56:43;;;;;;;25.87;19.60;;;;;;;;;;5033644;28;20489;-81
2021/10/09 05:59:31;;;;;;;23.27;19.03;;;;;;;;;;5032283;28;20461;-80
2021/10/09 06:42:36;;;;;;;30.07;21.93;;;;;;;;;;5026400;28;20477;-79
2021/10/09 06:47:50;;;;;;;30.67;23.97;;;;;;;;;;5020271;28;20434;-81
2021/10/09 06:50:38;;;;;;;32.60;24.67;;;;;;;;;;5038396;28;20422;-81
2021/10/09 07:01:10;;;;;;;27.30;21.60;;;;;;;;;;5032280;28;20947;-80
2021/10/09 07:03:40;;;;;;;31.73;22.33;;;;;;;;;;5031866;28;20494;-81
2021/10/09 07:06:08;;;;;;;26.80;21.40;;;;;;;;;;5027635;28;20541;-79
2021/10/09 07:08:52;;;;;;;30.30;23.67;;;;;;;;;;5034724;28;20457;-79
2021/10/09 07:11:19;;;;;;;31.13;22.67;;;;;;;;;;5033881;28;20429;-80
2021/10/09 07:13:47;;;;;;;30.93;23.73;;;;;;;;;;5025956;28;20496;-81
2021/10/09 07:16:15;;;;;;;32.23;22.40;;;;;;;;;;5030200;28;22944;-80
2021/10/09 07:18:42;;;;;;;28.97;21.80;;;;;;;;;;5030887;28;20784;-83
2021/10/09 07:21:09;;;;;;;31.90;23.30;;;;;;;;;;5033652;28;20445;-82
2021/10/09 07:23:37;;;;;;;30.90;23.93;;;;;;;;;;5034528;28;20481;-80
2021/10/09 07:26:07;;;;;;;28.27;21.63;;;;;;;;;;5025901;28;20550;-81
2021/10/09 07:28:34;;;;;;;29.40;22.27;;;;;;;;;;5032313;28;20545;-81
2021/10/09 07:31:01;;;;;;;31.70;23.00;;;;;;;;;;5029106;28;20458;-78
2021/10/09 07:33:29;;;;;;;27.47;21.13;;;;;;;;;;5015298;28;20472;-84
2021/10/09 07:35:56;;;;;;;27.40;21.83;;;;;;;;;;5031387;28;20459;-82
2021/10/09 07:38:24;;;;;;;24.90;20.70;;;;;;;;;;5013359;28;20436;-82
2021/10/09 07:41:06;;;;;;;30.33;21.53;;;;;;;;;;5014426;28;20451;-80
2021/10/09 07:43:33;;;;;;;27.20;21.40;;;;;;;;;;5025517;28;20477;-81
2021/10/09 07:46:00;;;;;;;27.93;21.80;;;;;;;;;;5039425;28;20801;-84
2021/10/09 07:48:27;;;;;;;24.80;19.80;;;;;;;;;;5032048;28;20450;-82
2021/10/09 07:50:57;;;;;;;26.30;21.23;;;;;;;;;;5023682;28;20481;-80
2021/10/09 07:53:24;;;;;;;24.93;20.27;;;;;;;;;;5023191;28;20479;-84
2021/10/09 07:55:51;;;;;;;28.80;21.50;;;;;;;;;;5032763;28;20446;-78
2021/10/09 07:58:19;;;;;;;24.80;19.47;;;;;;;;;;5015294;28;20435;-80
2021/10/09 08:00:47;;;;;;;25.57;19.60;;;;;;;;;;5020515;28;22765;-84
2021/10/09 08:03:14;;;;;;;21.53;18.90;;;;;;;;;;5021563;28;20495;-83
2021/10/09 08:05:41;;;;;;;24.00;19.10;;;;;;;;;;5025732;28;20546;-84
2021/10/09 08:08:10;;;;;;;20.80;18.10;;;;;;;;;;5032439;28;20449;-83
2021/10/09 08:10:37;;;;;;;22.97;18.90;;;;;;;;;;5025541;28;20855;-80
2021/10/09 08:13:04;;;;;;;21.23;18.00;;;;;;;;;;5030395;28;20488;-78
2021/10/09 08:15:31;;;;;;;23.37;17.40;;;;;;;;;;5035970;28;20465;-84
2021/10/09 08:17:58;;;;;;;24.23;19.20;;;;;;;;;;5027906;28;20987;-81
2021/10/09 08:20:25;;;;;;;23.60;16.83;;;;;;;;;;5031846;28;20445;-79
2021/10/09 08:22:59;;;;;;;24.23;18.83;;;;;;;;;;5030128;28;20462;-82
2021/10/09 08:36:17;;;;;;;21.40;17.13;;;;;;;;;;5024926;28;20483;-82
2021/10/09 08:38:49;;;;;;;26.37;16.73;;;;;;;;;;5031818;28;20881;-82
2021/10/09 08:41:17;;;;;;;22.00;17.13;;;;;;;;;;5025360;28;20765;-82
2021/10/09 08:43:45;;;;;;;22.20;15.93;;;;;;;;;;5036443;28;20976;-81
2021/10/09 08:46:12;;;;;;;21.10;16.27;;;;;;;;;;5032355;28;20936;-82
2021/10/09 08:48:42;;;;;;;23.43;16.50;;;;;;;;;;5031064;28;20445;-84
2021/10/09 08:51:10;;;;;;;19.57;16.70;;;;;;;;;;5027151;28;20553;-80
2021/10/09 08:53:38;;;;;;;23.37;17.40;;;;;;;;;;5020044;28;20483;-78
2021/10/09 08:56:05;;;;;;;20.43;14.73;;;;;;;;;;5011113;28;20777;-82
2021/10/09 08:58:37;;;;;;;17.17;14.27;;;;;;;;;;5030192;28;20465;-78
2021/10/09 09:01:10;;;;;;;21.07;16.90;;;;;;;;;;5036589;28;20502;-79
2021/10/09 09:04:05;;;;;;;20.07;16.37;;;;;;;;;;5031010;28;20485;-80
2021/10/09 09:07:00;;;;;;;18.70;16.23;;;;;;;;;;5012621;28;20458;-80
2021/10/09 09:25:19;;;;;;;19.83;15.97;;;;;;;;;;5020659;28;20460;-77
2021/10/09 09:26:01;;;;;;;19.17;13.30;;;;;;;;;;5021317;28;20822;-76
2021/10/09 09:31:31;;;;;;;21.53;15.60;;;;;;;;;;5034134;28;20425;-79
2021/10/09 09:34:13;;;;;;;21.20;15.37;;;;;;;;;;5006560;28;20907;-79
2021/10/09 09:37:00;;;;;;;17.53;12.90;;;;;;;;;;5014114;28;20500;-80
2021/10/09 09:39:36;;;;;;;18.30;13.33;;;;;;;;;;5028099;28;20820;-79
2021/10/09 09:42:04;;;;;;;19.13;14.20;;;;;;;;;;5031612;28;20445;-79
2021/10/09 09:44:31;;;;;;;21.97;14.03;;;;;;;;;;5014187;28;20494;-80
2021/10/09 09:47:03;;;;;;;14.90;12.93;;;;;;;;;;5021816;28;20467;-80
2021/10/09 09:49:30;;;;;;;17.43;13.70;;;;;;;;;;5025827;28;20457;-80
2021/10/09 09:51:58;;;;;;;18.17;14.87;;;;;;;;;;5036732;28;20433;-84
2021/10/09 09:54:27;;;;;;;19.40;14.83;;;;;;;;;;5032337;28;20457;-82
2021/10/09 09:56:56;;;;;;;24.17;14.07;;;;;;;;;;5013869;28;20458;-81
2021/10/09 09:59:26;;;;;;;14.63;12.63;;;;;;;;;;5029481;28;20452;-78
2021/10/09 10:01:53;;;;;;;15.97;11.87;;;;;;;;;;5022706;28;20523;-79
2021/10/09 10:04:22;;;;;;;21.33;14.33;;;;;;;;;;5030091;28;20489;-81
2021/10/09 10:06:49;;;;;;;20.47;14.27;;;;;;;;;;5027802;28;20978;-77
2021/10/09 10:09:16;;;;;;;15.07;12.80;;;;;;;;;;5036467;28;20433;-80
2021/10/09 10:11:43;;;;;;;17.07;12.90;;;;;;;;;;5035547;28;20516;-81
2021/10/09 10:14:11;;;;;;;19.80;13.00;;;;;;;;;;5039254;28;20474;-81
2021/10/09 10:16:38;;;;;;;15.77;13.57;;;;;;;;;;5025583;28;20457;-80
2021/10/09 10:19:05;;;;;;;16.80;12.97;;;;;;;;;;5027255;28;20918;-79
2021/10/09 10:21:47;;;;;;;17.90;12.10;;;;;;;;;;5022072;28;20943;-77
2021/10/09 10:24:35;;;;;;;14.57;12.23;;;;;;;;;;5018617;28;20495;-83
2021/10/09 10:27:17;;;;;;;14.60;11.47;;;;;;;;;;5011686;28;20477;-82
2021/10/09 10:29:45;;;;;;;12.67;11.20;;;;;;;;;;5017378;28;20453;-83
2021/10/09 10:32:17;;;;;;;17.73;13.47;;;;;;;;;;5036405;28;20444;-77
2021/10/09 10:34:46;;;;;;;14.30;11.70;;;;;;;;;;5031328;28;20453;-79
2021/10/09 10:37:28;;;;;;;15.30;12.80;;;;;;;;;;5023342;28;20811;-81
2021/10/09 10:39:57;;;;;;;14.67;10.87;;;;;;;;;;5035210;28;20451;-83
2021/10/09 10:42:28;;;;;;;14.83;12.00;;;;;;;;;;5022601;28;20485;-82
2021/10/09 10:45:05;;;;;;;15.87;11.40;;;;;;;;;;5032312;28;20525;-81
2021/10/09 10:47:43;;;;;;;15.87;11.10;;;;;;;;;;5029867;28;20456;-82
2021/10/09 10:50:25;;;;;;;12.37;9.80;;;;;;;;;;5020842;28;20399;-79
2021/10/09 10:52:55;;;;;;;17.00;12.60;;;;;;;;;;5016627;28;20540;-80
2021/10/09 10:55:24;;;;;;;14.90;12.00;;;;;;;;;;5021124;28;20879;-83
2021/10/09 10:58:06;;;;;;;16.73;12.20;;;;;;;;;;5030847;28;20462;-83
2021/10/09 11:00:34;;;;;;;13.73;11.00;;;;;;;;;;5010689;28;20488;-79
2021/10/09 11:03:01;;;;;;;15.53;12.73;;;;;;;;;;5025610;28;20480;-77
2021/10/09 11:05:28;;;;;;;14.83;11.63;;;;;;;;;;5029050;28;20489;-81
2021/10/09 11:07:55;;;;;;;15.20;12.60;;;;;;;;;;5029985;28;20432;-79
2021/10/09 11:10:24;;;;;;;15.33;12.27;;;;;;;;;;5031731;28;20772;-79
2021/10/09 11:12:52;;;;;;;14.83;11.77;;;;;;;;;;5026711;28;21054;-80
2021/10/09 11:15:22;;;;;;;18.17;13.40;;;;;;;;;;5016615;28;20804;-79
2021/10/09 11:17:50;;;;;;;17.80;11.77;;;;;;;;;;5024639;28;20466;-78
2021/10/09 11:20:22;;;;;;;13.77;11.70;;;;;;;;;;5011853;28;20826;-78
2021/10/09 11:22:50;;;;;;;11.80;10.57;;;;;;;;;;5027908;28;20551;-78
2021/10/09 11:25:27;;;;;;;14.23;11.47;;;;;;;;;;5028742;28;20938;-80
2021/10/09 11:27:54;;;;;;;13.93;11.00;;;;;;;;;;5016836;28;20456;-78
2021/10/09 11:30:21;;;;;;;13.03;11.37;;;;;;;;;;5009149;28;20458;-76
2021/10/09 11:32:49;;;;;;;13.73;11.47;;;;;;;;;;5045407;28;20818;-81
2021/10/09 11:35:17;;;;;;;13.37;10.67;;;;;;;;;;5040627;28;21031;-81
2021/10/09 11:37:46;;;;;;;14.93;11.43;;;;;;;;;;5029713;28;20549;-80
2021/10/09 11:40:13;;;;;;;13.87;10.63;;;;;;;;;;5028983;28;20446;-81
2021/10/09 11:42:52;;;;;;;13.77;10.67;;;;;;;;;;5022710;28;22065;-80
2021/10/09 11:45:26;;;;;;;13.37;10.57;;;;;;;;;;5016484;28;20492;-78
2021/10/09 11:56:00;;;;;;;13.50;10.87;;;;;;;;;;5016880;28;20937;-78
2021/10/09 11:58:30;;;;;;;11.00;9.90;;;;;;;;;;5023103;28;20447;-78
2021/10/09 12:00:58;;;;;;;18.70;10.73;;;;;;;;;;5033243;28;20420;-80
2021/10/09 12:03:33;;;;;;;13.73;9.80;;;;;;;;;;5028813;28;20469;-83
2021/10/09 12:06:01;;;;;;;13.10;10.40;;;;;;;;;;5020596;28;20443;-81
2021/10/09 12:08:30;;;;;;;10.83;9.47;;;;;;;;;;5008258;28;20526;-81
2021/10/09 12:11:12;;;;;;;11.57;10.37;;;;;;;;;;4997736;28;20627;-78
2021/10/09 12:13:54;;;;;;;12.77;10.63;;;;;;;;;;4997304;28;20454;-82
2021/10/09 12:16:28;;;;;;;12.23;9.97;;;;;;;;;;5005366;28;20918;-79
2021/10/09 12:18:56;;;;;;;11.10;9.73;;;;;;;;;;5002278;28;21026;-80
2021/10/09 12:21:25;;;;;;;13.73;10.73;;;;;;;;;;4998854;28;20528;-79
2021/10/09 12:23:53;;;;;;;13.70;10.07;;;;;;;;;;5005002;28;20829;-82
2021/10/09 12:26:21;;;;;;;12.30;9.67;;;;;;;;;;5008029;28;21016;-78
2021/10/09 12:29:03;;;;;;;12.63;9.70;;;;;;;;;;5003305;28;20966;-80
2021/10/09 12:31:32;;;;;;;10.70;9.47;;;;;;;;;;5011575;28;20458;-78
2021/10/09 12:33:59;;;;;;;10.07;9.00;;;;;;;;;;5024471;28;20462;-78
2021/10/09 12:36:31;;;;;;;10.70;9.30;;;;;;;;;;5001603;28;20441;-78
2021/10/09 12:38:59;;;;;;;10.13;9.17;;;;;;;;;;5007221;28;20422;-77
2021/10/09 12:41:26;;;;;;;12.50;9.70;;;;;;;;;;5003508;28;20443;-78
2021/10/09 12:43:55;;;;;;;11.70;8.50;;;;;;;;;;4998432;28;20469;-83
2021/10/09 12:46:22;;;;;;;14.43;8.93;;;;;;;;;;5010443;28;20462;-80
2021/10/09 12:48:50;;;;;;;9.80;7.70;;;;;;;;;;5008347;28;20415;-81
2021/10/09 12:51:17;;;;;;;9.80;8.80;;;;;;;;;;4992220;28;20922;-79
2021/10/09 12:53:45;;;;;;;10.60;8.97;;;;;;;;;;5009562;28;20486;-78
2021/10/09 12:56:12;;;;;;;9.10;8.20;;;;;;;;;;5011525;28;20403;-79
2021/10/09 12:58:39;;;;;;;9.37;8.47;;;;;;;;;;5001959;28;20462;-80
2021/10/09 13:01:06;;;;;;;9.90;8.53;;;;;;;;;;5001545;28;20430;-78
2021/10/09 13:03:33;;;;;;;10.00;8.50;;;;;;;;;;5016814;28;20438;-79
2021/10/09 13:06:02;;;;;;;9.10;8.13;;;;;;;;;;5005884;28;20454;-81
2021/10/09 13:08:29;;;;;;;10.77;9.17;;;;;;;;;;5012043;28;20918;-80
2021/10/09 13:10:59;;;;;;;10.30;7.87;;;;;;;;;;5003609;28;20467;-81
2021/10/09 13:13:26;;;;;;;11.07;8.30;;;;;;;;;;5019753;28;20470;-80
2021/10/09 13:15:53;;;;;;;10.83;8.63;;;;;;;;;;5019759;28;20442;-80
2021/10/09 13:18:20;;;;;;;12.20;8.47;;;;;;;;;;5027306;28;20439;-81
2021/10/09 13:20:47;;;;;;;8.40;7.47;;;;;;;;;;5026120;28;20440;-78
2021/10/09 13:23:16;;;;;;;8.70;7.60;;;;;;;;;;5032690;28;20470;-82
2021/10/09 13:25:43;;;;;;;8.20;7.40;;;;;;;;;;5031394;28;20986;-81
2021/10/09 13:28:10;;;;;;;9.30;7.63;;;;;;;;;;5033597;28;20812;-81
2021/10/09 13:30:37;;;;;;;15.77;7.13;;;;;;;;;;5028980;28;20463;-80
2021/10/09 13:33:05;;;;;;;9.17;7.90;;;;;;;;;;5031227;28;20488;-80
2021/10/09 13:35:32;;;;;;;11.23;8.83;;;;;;;;;;5029858;28;20972;-81
2021/10/09 13:38:01;;;;;;;11.33;8.37;;;;;;;;;;5026486;28;20970;-79
2021/10/09 13:40:29;;;;;;;9.67;7.80;;;;;;;;;;5033845;28;20660;-80
2021/10/09 13:42:56;;;;;;;10.47;7.20;;;;;;;;;;5023740;28;20449;-79
2021/10/09 13:45:24;;;;;;;9.47;6.90;;;;;;;;;;5033702;28;20482;-84
2021/10/09 13:47:51;;;;;;;8.17;7.37;;;;;;;;;;5032880;28;20434;-80
2021/10/09 13:50:18;;;;;;;8.63;7.70;;;;;;;;;;5030243;28;20441;-79
2021/10/09 13:52:45;;;;;;;8.10;7.30;;;;;;;;;;5031916;28;20467;-78
2021/10/09 13:55:12;;;;;;;10.27;7.87;;;;;;;;;;5024364;28;20462;-83
2021/10/09 13:57:41;;;;;;;11.77;7.77;;;;;;;;;;5031594;28;20422;-82
2021/10/09 14:00:09;;;;;;;12.53;8.50;;;;;;;;;;5023321;28;20452;-80
2021/10/09 14:02:36;;;;;;;9.20;8.30;;;;;;;;;;5021607;28;20485;-81
2021/10/09 14:05:03;;;;;;;8.90;7.40;;;;;;;;;;5025123;28;20812;-81
2021/10/09 14:07:30;;;;;;;9.47;7.87;;;;;;;;;;5026101;28;20942;-81
2021/10/09 14:09:57;;;;;;;9.30;7.27;;;;;;;;;;5031467;28;20465;-83
2021/10/09 14:12:25;;;;;;;9.17;7.47;;;;;;;;;;5022014;28;20452;-80
2021/10/09 14:14:53;;;;;;;8.10;7.30;;;;;;;;;;5020754;28;20953;-82
2021/10/09 14:17:20;;;;;;;8.23;7.00;;;;;;;;;;5021298;28;20437;-81
2021/10/09 14:19:54;;;;;;;13.27;7.73;;;;;;;;;;5033227;28;20453;-84
2021/10/09 14:22:21;;;;;;;9.70;7.20;;;;;;;;;;5030034;28;20597;-80
2021/10/09 14:24:48;;;;;;;7.50;6.50;;;;;;;;;;5030598;28;20460;-80
2021/10/09 14:27:16;;;;;;;7.20;6.30;;;;;;;;;;5038171;28;20415;-81
2021/10/09 14:29:43;;;;;;;7.40;6.57;;;;;;;;;;5031850;28;20456;-82
2021/10/09 14:32:11;;;;;;;8.10;6.40;;;;;;;;;;5033625;28;20501;-80
2021/10/09 14:34:39;;;;;;;9.57;7.67;;;;;;;;;;5032681;28;20454;-78
2021/10/09 14:37:06;;;;;;;11.10;8.07;;;;;;;;;;5022751;28;21663;-81
2021/10/09 14:39:33;;;;;;;7.30;6.57;;;;;;;;;;5029725;28;20463;-82
2021/10/09 14:42:01;;;;;;;7.40;5.83;;;;;;;;;;5036327;28;20534;-82
2021/10/09 14:44:28;;;;;;;7.63;6.90;;;;;;;;;;5032493;28;20466;-79
2021/10/09 14:49:42;;;;;;;7.00;5.70;;;;;;;;;;5038600;28;20521;-84
2021/10/09 14:52:23;;;;;;;8.67;6.03;;;;;;;;;;5028871;28;20857;-82
2021/10/09 14:55:05;;;;;;;7.93;6.50;;;;;;;;;;5033123;28;20658;-81
2021/10/09 15:16:39;;;;;;;9.83;6.80;;;;;;;;;;5026861;28;20469;-82
2021/10/09 15:19:07;;;;;;;7.40;5.77;;;;;;;;;;5035764;28;20438;-82
2021/10/09 15:21:35;;;;;;;6.77;5.10;;;;;;;;;;5039209;28;20409;-82
2021/10/09 15:24:02;;;;;;;8.00;5.63;;;;;;;;;;5030530;28;21009;-84
2021/10/09 15:26:29;;;;;;;6.40;5.07;;;;;;;;;;5021444;28;21089;-80
2021/10/09 15:28:56;;;;;;;5.93;5.30;;;;;;;;;;5031065;28;20465;-84
2021/10/09 15:31:24;;;;;;;6.70;5.50;;;;;;;;;;5033601;28;20417;-81
2021/10/09 15:33:51;;;;;;;6.23;5.63;;;;;;;;;;5023920;28;20567;-81
2021/10/09 15:36:18;;;;;;;8.00;5.80;;;;;;;;;;5038429;28;20791;-81
2021/10/09 15:38:47;;;;;;;6.80;5.87;;;;;;;;;;5049359;28;20417;-82
2021/10/09 15:41:14;;;;;;;9.20;6.40;;;;;;;;;;5033131;28;20437;-82
2021/10/09 15:43:42;;;;;;;8.13;6.50;;;;;;;;;;5032741;28;20465;-81
2021/10/09 15:46:09;;;;;;;9.00;6.13;;;;;;;;;;5030314;28;20462;-82
2021/10/09 15:48:36;;;;;;;6.03;5.40;;;;;;;;;;5034006;28;20852;-80
2021/10/09 15:51:03;;;;;;;8.60;5.70;;;;;;;;;;5038772;28;20461;-81
2021/10/09 15:53:31;;;;;;;6.97;5.80;;;;;;;;;;5032343;28;20513;-83
2021/10/09 15:55:59;;;;;;;11.00;5.47;;;;;;;;;;5032395;28;20777;-85
2021/10/09 15:58:26;;;;;;;7.80;5.70;;;;;;;;;;5030614;28;20435;-82
2021/10/09 16:00:54;;;;;;;6.77;6.07;;;;;;;;;;5032663;28;20435;-81
2021/10/09 16:03:21;;;;;;;7.87;5.63;;;;;;;;;;5018400;28;20479;-79
2021/10/09 16:05:48;;;;;;;8.50;6.53;;;;;;;;;;5025916;28;20464;-79
2021/10/09 16:08:15;;;;;;;7.07;6.37;;;;;;;;;;5034544;28;20444;-83
2021/10/09 16:10:42;;;;;;;8.17;6.00;;;;;;;;;;5051366;28;20775;-84
2021/10/09 16:13:15;;;;;;;8.40;7.00;;;;;;;;;;5037543;28;20453;-81
2021/10/09 16:15:43;;;;;;;8.67;7.10;;;;;;;;;;5019739;28;20433;-77
2021/10/09 16:18:10;;;;;;;8.50;6.77;;;;;;;;;;5021539;28;20438;-80
2021/10/09 16:20:37;;;;;;;7.73;6.13;;;;;;;;;;5036168;28;20490;-79
2021/10/09 16:23:04;;;;;;;7.40;6.17;;;;;;;;;;5036652;28;20456;-78
2021/10/09 16:25:31;;;;;;;6.17;5.57;;;;;;;;;;5049574;28;20469;-82
2021/10/09 16:27:58;;;;;;;6.30;5.70;;;;;;;;;;5051933;28;20424;-80
2021/10/09 16:30:27;;;;;;;6.90;5.60;;;;;;;;;;5019709;28;20465;-79